sensor_id;sensor_type;location;lat;lon;timestamp;temperature;humidity
18268;DHT22;9260;49.998;19.880;2023-12-14T00:03:41;2.10;1.00
18268;DHT22;9260;49.998;19.880;2023-12-14T00:13:47;2.20;1.00
18268;DHT22;9260;49.998;19.880;2023-12-14T00:23:50;2.10;1.00
18268;DHT22;9260;49.998;19.880;2023-12-14T00:33:55;2.10;1.00
18268;DHT22;9260;49.998;19.880;2023-12-14T00:43:58;2.00;1.00
18268;DHT22;9260;49.998;19.880;2023-12-14T00:54:03;1.90;1.00
18268;DHT22;9260;49.998;19.880;2023-12-14T01:04:07;1.90;1.00
18268;DHT22;9260;49.998;19.880;2023-12-14T01:14:11;2.00;1.00
18268;DHT22;9260;49.998;19.880;2023-12-14T01:24:15;1.70;1.00
18268;DHT22;9260;49.998;19.880;2023-12-14T01:34:20;2.10;1.00
18268;DHT22;9260;49.998;19.880;2023-12-14T01:44:23;1.90;1.00
18268;DHT22;9260;49.998;19.880;2023-12-14T01:54:27;1.80;1.00
18268;DHT22;9260;49.998;19.880;2023-12-14T02:04:31;2.00;1.00
18268;DHT22;9260;49.998;19.880;2023-12-14T02:14:36;2.00;1.00
18268;DHT22;9260;49.998;19.880;2023-12-14T02:24:40;1.90;1.00
18268;DHT22;9260;49.998;19.880;2023-12-14T02:34:44;1.90;1.00
18268;DHT22;9260;49.998;19.880;2023-12-14T02:44:48;2.00;1.00
18268;DHT22;9260;49.998;19.880;2023-12-14T02:54:52;2.00;1.00
18268;DHT22;9260;49.998;19.880;2023-12-14T03:04:57;2.20;1.00
18268;DHT22;9260;49.998;19.880;2023-12-14T03:15:00;2.00;1.00
18268;DHT22;9260;49.998;19.880;2023-12-14T03:25:05;2.10;1.00
18268;DHT22;9260;49.998;19.880;2023-12-14T03:35:10;2.10;1.00
18268;DHT22;9260;49.998;19.880;2023-12-14T03:45:15;1.90;1.00
18268;DHT22;9260;49.998;19.880;2023-12-14T03:55:18;2.00;1.00
18268;DHT22;9260;49.998;19.880;2023-12-14T04:05:23;2.00;1.00
18268;DHT22;9260;49.998;19.880;2023-12-14T04:15:26;2.00;1.00
18268;DHT22;9260;49.998;19.880;2023-12-14T04:25:31;3.20;1.00
18268;DHT22;9260;49.998;19.880;2023-12-14T04:35:34;2.00;1.00
18268;DHT22;9260;49.998;19.880;2023-12-14T04:55:43;1.90;1.00
18268;DHT22;9260;49.998;19.880;2023-12-14T05:05:48;1.90;1.00
18268;DHT22;9260;49.998;19.880;2023-12-14T05:15:52;2.00;1.00
18268;DHT22;9260;49.998;19.880;2023-12-14T05:25:56;2.00;1.00
18268;DHT22;9260;49.998;19.880;2023-12-14T05:36:00;2.00;1.00
18268;DHT22;9260;49.998;19.880;2023-12-14T05:46:05;1.80;1.00
18268;DHT22;9260;49.998;19.880;2023-12-14T05:56:08;2.00;1.00
18268;DHT22;9260;49.998;19.880;2023-12-14T06:06:13;2.00;1.00
18268;DHT22;9260;49.998;19.880;2023-12-14T06:16:17;1.80;1.00
18268;DHT22;9260;49.998;19.880;2023-12-14T06:26:22;1.90;1.00
18268;DHT22;9260;49.998;19.880;2023-12-14T06:36:25;2.00;1.00
18268;DHT22;9260;49.998;19.880;2023-12-14T06:46:33;2.20;1.00
18268;DHT22;9260;49.998;19.880;2023-12-14T06:56:36;2.10;1.00
18268;DHT22;9260;49.998;19.880;2023-12-14T07:06:41;1.90;1.00
18268;DHT22;9260;49.998;19.880;2023-12-14T07:16:44;2.20;1.00
18268;DHT22;9260;49.998;19.880;2023-12-14T07:26:49;2.20;1.00
18268;DHT22;9260;49.998;19.880;2023-12-14T07:36:52;2.20;1.00
18268;DHT22;9260;49.998;19.880;2023-12-14T07:46:57;2.30;1.00
18268;DHT22;9260;49.998;19.880;2023-12-14T07:57:02;2.20;1.00
18268;DHT22;9260;49.998;19.880;2023-12-14T08:07:07;2.40;1.00
18268;DHT22;9260;49.998;19.880;2023-12-14T08:17:14;2.50;1.00
18268;DHT22;9260;49.998;19.880;2023-12-14T08:27:19;2.60;1.00
18268;DHT22;9260;49.998;19.880;2023-12-14T08:37:22;2.70;1.00
18268;DHT22;9260;49.998;19.880;2023-12-14T08:47:27;2.90;1.00
18268;DHT22;9260;49.998;19.880;2023-12-14T08:57:30;2.90;1.00
18268;DHT22;9260;49.998;19.880;2023-12-14T09:07:37;3.10;1.00
18268;DHT22;9260;49.998;19.880;2023-12-14T09:17:40;3.40;1.00
18268;DHT22;9260;49.998;19.880;2023-12-14T09:27:46;3.10;1.00
18268;DHT22;9260;49.998;19.880;2023-12-14T09:37:50;3.10;1.00
18268;DHT22;9260;49.998;19.880;2023-12-14T09:47:55;3.40;1.00
18268;DHT22;9260;49.998;19.880;2023-12-14T09:58:38;3.90;1.00
18268;DHT22;9260;49.998;19.880;2023-12-14T10:09:04;3.80;1.00
18268;DHT22;9260;49.998;19.880;2023-12-14T10:19:10;4.00;1.00
18268;DHT22;9260;49.998;19.880;2023-12-14T10:29:15;4.00;1.00
18268;DHT22;9260;49.998;19.880;2023-12-14T10:39:18;4.90;1.00
18268;DHT22;9260;49.998;19.880;2023-12-14T10:49:24;3.90;1.00
18268;DHT22;9260;49.998;19.880;2023-12-14T10:59:28;3.90;1.00
18268;DHT22;9260;49.998;19.880;2023-12-14T11:09:35;4.00;1.00
18268;DHT22;9260;49.998;19.880;2023-12-14T11:19:39;4.20;1.00
18268;DHT22;9260;49.998;19.880;2023-12-14T11:29:48;3.80;1.00
18268;DHT22;9260;49.998;19.880;2023-12-14T11:39:52;5.00;1.00
18268;DHT22;9260;49.998;19.880;2023-12-14T11:49:57;3.60;1.00
18268;DHT22;9260;49.998;19.880;2023-12-14T12:00:01;3.50;1.00
18268;DHT22;9260;49.998;19.880;2023-12-14T12:10:07;3.60;1.00
18268;DHT22;9260;49.998;19.880;2023-12-14T12:20:10;3.50;1.00
18268;DHT22;9260;49.998;19.880;2023-12-14T12:30:15;3.50;1.00
18268;DHT22;9260;49.998;19.880;2023-12-14T12:40:18;3.50;1.00
18268;DHT22;9260;49.998;19.880;2023-12-14T12:50:23;3.60;1.00
18268;DHT22;9260;49.998;19.880;2023-12-14T13:00:26;3.90;1.00
18268;DHT22;9260;49.998;19.880;2023-12-14T13:10:32;5.70;1.00
18268;DHT22;9260;49.998;19.880;2023-12-14T13:20:36;3.50;1.00
18268;DHT22;9260;49.998;19.880;2023-12-14T13:30:40;3.60;1.00
18268;DHT22;9260;49.998;19.880;2023-12-14T13:40:44;3.40;1.00
18268;DHT22;9260;49.998;19.880;2023-12-14T13:50:48;3.40;1.00
18268;DHT22;9260;49.998;19.880;2023-12-14T14:00:52;3.00;1.00
18268;DHT22;9260;49.998;19.880;2023-12-14T14:10:56;2.80;1.00
18268;DHT22;9260;49.998;19.880;2023-12-14T14:21:00;3.00;1.00
18268;DHT22;9260;49.998;19.880;2023-12-14T14:31:05;2.80;1.00
18268;DHT22;9260;49.998;19.880;2023-12-14T14:41:08;2.90;1.00
18268;DHT22;9260;49.998;19.880;2023-12-14T14:51:13;2.80;1.00
18268;DHT22;9260;49.998;19.880;2023-12-14T15:01:16;2.80;1.00
18268;DHT22;9260;49.998;19.880;2023-12-14T15:11:22;2.70;1.00
18268;DHT22;9260;49.998;19.880;2023-12-14T15:21:26;2.60;1.00
18268;DHT22;9260;49.998;19.880;2023-12-14T15:31:30;2.60;1.00
18268;DHT22;9260;49.998;19.880;2023-12-14T15:41:34;2.80;1.00
18268;DHT22;9260;49.998;19.880;2023-12-14T15:51:40;2.60;1.00
18268;DHT22;9260;49.998;19.880;2023-12-14T16:01:43;3.00;1.00
18268;DHT22;9260;49.998;19.880;2023-12-14T16:11:51;2.60;1.00
18268;DHT22;9260;49.998;19.880;2023-12-14T16:21:54;2.80;1.00
18268;DHT22;9260;49.998;19.880;2023-12-14T16:31:59;2.80;1.00
18268;DHT22;9260;49.998;19.880;2023-12-14T16:42:03;3.00;1.00
18268;DHT22;9260;49.998;19.880;2023-12-14T16:52:07;2.60;1.00
18268;DHT22;9260;49.998;19.880;2023-12-14T17:02:11;2.60;1.00
18268;DHT22;9260;49.998;19.880;2023-12-14T17:12:17;-0.90;1.00
18268;DHT22;9260;49.998;19.880;2023-12-14T17:22:20;2.90;1.00
18268;DHT22;9260;49.998;19.880;2023-12-14T17:32:25;2.60;1.00
18268;DHT22;9260;49.998;19.880;2023-12-14T17:42:28;2.80;1.00
18268;DHT22;9260;49.998;19.880;2023-12-14T17:52:33;2.60;1.00
18268;DHT22;9260;49.998;19.880;2023-12-14T18:02:36;2.50;1.00
18268;DHT22;9260;49.998;19.880;2023-12-14T18:12:41;2.70;1.00
18268;DHT22;9260;49.998;19.880;2023-12-14T18:22:44;3.00;1.00
18268;DHT22;9260;49.998;19.880;2023-12-14T18:32:50;2.50;1.00
18268;DHT22;9260;49.998;19.880;2023-12-14T18:42:53;2.70;1.00
18268;DHT22;9260;49.998;19.880;2023-12-14T18:52:58;2.50;1.00
18268;DHT22;9260;49.998;19.880;2023-12-14T19:03:02;2.50;1.00
18268;DHT22;9260;49.998;19.880;2023-12-14T19:13:09;2.30;1.00
18268;DHT22;9260;49.998;19.880;2023-12-14T19:23:12;2.70;1.00
18268;DHT22;9260;49.998;19.880;2023-12-14T19:33:17;2.40;1.00
18268;DHT22;9260;49.998;19.880;2023-12-14T19:43:20;2.10;1.00
18268;DHT22;9260;49.998;19.880;2023-12-14T19:53:25;2.40;1.00
18268;DHT22;9260;49.998;19.880;2023-12-14T20:03:28;2.30;1.00
18268;DHT22;9260;49.998;19.880;2023-12-14T20:13:33;2.20;1.00
18268;DHT22;9260;49.998;19.880;2023-12-14T20:23:37;2.00;1.00
18268;DHT22;9260;49.998;19.880;2023-12-14T20:33:44;2.30;1.00
18268;DHT22;9260;49.998;19.880;2023-12-14T20:43:49;2.00;1.00
18268;DHT22;9260;49.998;19.880;2023-12-14T20:53:54;2.10;1.00
18268;DHT22;9260;49.998;19.880;2023-12-14T21:03:58;2.00;1.00
18268;DHT22;9260;49.998;19.880;2023-12-14T21:14:02;2.00;1.00
18268;DHT22;9260;49.998;19.880;2023-12-14T21:24:06;2.00;1.00
18268;DHT22;9260;49.998;19.880;2023-12-14T21:34:10;2.00;1.00
18268;DHT22;9260;49.998;19.880;2023-12-14T21:44:14;1.80;1.00
18268;DHT22;9260;49.998;19.880;2023-12-14T21:54:18;1.90;1.00
18268;DHT22;9260;49.998;19.880;2023-12-14T22:04:22;1.80;1.00
18268;DHT22;9260;49.998;19.880;2023-12-14T22:14:26;1.80;1.00
18268;DHT22;9260;49.998;19.880;2023-12-14T22:24:30;1.80;1.00
18268;DHT22;9260;49.998;19.880;2023-12-14T22:34:34;1.80;1.00
18268;DHT22;9260;49.998;19.880;2023-12-14T22:44:38;1.70;1.00
18268;DHT22;9260;49.998;19.880;2023-12-14T22:54:44;2.10;1.00
18268;DHT22;9260;49.998;19.880;2023-12-14T23:04:47;1.40;1.00
18268;DHT22;9260;49.998;19.880;2023-12-14T23:14:53;1.80;1.00
18268;DHT22;9260;49.998;19.880;2023-12-14T23:24:56;2.90;1.00
18268;DHT22;9260;49.998;19.880;2023-12-14T23:35:00;1.40;1.00
18268;DHT22;9260;49.998;19.880;2023-12-14T23:45:04;1.60;1.00
18268;DHT22;9260;49.998;19.880;2023-12-14T23:55:10;1.70;1.00
